Terminal Aerodrome Forecast
Issued by NWS

Home | Current Version | Previous Version | Text Only | Print | Product List | Glossary On
Versions: 1 2 3 4 5 6 7 8 9 10 11 12
000
FTUS41 KCAR 261720
TAFFVE
TAF
KFVE 261720Z 2618/2718 28018G31KT P6SM BKN040
     FM262300 27012G20KT P6SM SCT040
     FM270500 28008KT P6SM BKN035
     FM271500 30008G15KT P6SM SCT040 BKN200=

USA.gov is the U.S. government's official web portal to all federal, state and local government web resources and services.